sensor_id;sensor_type;location;lat;lon;timestamp;pressure;altitude;pressure_sealevel;temperature;humidity
55685;BME280;41883;49.544;8.646;2022-12-29T00:01:58;99932.53;;;10.52;nan
55685;BME280;41883;49.544;8.646;2022-12-29T00:04:26;99918.50;;;10.52;nan
55685;BME280;41883;49.544;8.646;2022-12-29T00:06:54;99927.25;;;10.52;nan
55685;BME280;41883;49.544;8.646;2022-12-29T00:09:19;99926.09;;;10.55;nan
55685;BME280;41883;49.544;8.646;2022-12-29T00:11:47;99930.41;;;10.56;nan
55685;BME280;41883;49.544;8.646;2022-12-29T00:14:15;99922.78;;;10.53;nan
55685;BME280;41883;49.544;8.646;2022-12-29T00:17:00;99920.31;;;10.59;nan
55685;BME280;41883;49.544;8.646;2022-12-29T00:19:37;99923.31;;;10.56;nan
55685;BME280;41883;49.544;8.646;2022-12-29T00:22:28;99920.81;;;10.63;nan
55685;BME280;41883;49.544;8.646;2022-12-29T00:25:18;99919.00;;;10.63;nan
55685;BME280;41883;49.544;8.646;2022-12-29T00:28:09;99923.78;;;10.68;nan
55685;BME280;41883;49.544;8.646;2022-12-29T00:30:53;99922.63;;;10.71;nan
55685;BME280;41883;49.544;8.646;2022-12-29T00:33:42;99925.09;;;10.72;nan
55685;BME280;41883;49.544;8.646;2022-12-29T00:36:36;99928.53;;;10.81;nan
55685;BME280;41883;49.544;8.646;2022-12-29T00:39:12;99915.81;;;10.84;nan
55685;BME280;41883;49.544;8.646;2022-12-29T00:42:06;99920.44;;;10.91;nan
55685;BME280;41883;49.544;8.646;2022-12-29T00:44:50;99917.78;;;10.91;nan
55685;BME280;41883;49.544;8.646;2022-12-29T00:47:15;99916.16;;;10.90;nan
55685;BME280;41883;49.544;8.646;2022-12-29T00:49:40;99918.28;;;10.94;nan
55685;BME280;41883;49.544;8.646;2022-12-29T00:52:10;99920.94;;;10.94;nan
55685;BME280;41883;49.544;8.646;2022-12-29T00:54:38;99926.22;;;10.94;nan
55685;BME280;41883;49.544;8.646;2022-12-29T00:57:05;99918.91;;;10.96;nan
55685;BME280;41883;49.544;8.646;2022-12-29T00:59:31;99921.91;;;10.93;nan
55685;BME280;41883;49.544;8.646;2022-12-29T01:01:57;99917.44;;;10.94;nan
55685;BME280;41883;49.544;8.646;2022-12-29T01:04:23;99918.59;;;10.91;nan
55685;BME280;41883;49.544;8.646;2022-12-29T01:06:49;99920.44;;;10.91;nan
55685;BME280;41883;49.544;8.646;2022-12-29T01:09:18;99916.66;;;10.85;nan
55685;BME280;41883;49.544;8.646;2022-12-29T01:12:04;99912.69;;;10.81;nan
55685;BME280;41883;49.544;8.646;2022-12-29T01:14:30;99917.16;;;10.80;nan
55685;BME280;41883;49.544;8.646;2022-12-29T01:16:56;99911.34;;;10.77;nan
55685;BME280;41883;49.544;8.646;2022-12-29T01:19:22;99911.88;;;10.80;nan
55685;BME280;41883;49.544;8.646;2022-12-29T01:21:47;99911.03;;;10.80;nan
55685;BME280;41883;49.544;8.646;2022-12-29T01:24:14;99910.53;;;10.76;nan
55685;BME280;41883;49.544;8.646;2022-12-29T01:26:40;99907.38;;;10.81;nan
55685;BME280;41883;49.544;8.646;2022-12-29T01:29:05;99905.91;;;10.78;nan
55685;BME280;41883;49.544;8.646;2022-12-29T01:31:30;99902.44;;;10.78;nan
55685;BME280;41883;49.544;8.646;2022-12-29T01:33:56;99903.41;;;10.85;nan
55685;BME280;41883;49.544;8.646;2022-12-29T01:36:21;99899.25;;;10.91;nan
55685;BME280;41883;49.544;8.646;2022-12-29T01:38:46;99903.59;;;10.92;nan
55685;BME280;41883;49.544;8.646;2022-12-29T01:41:13;99912.16;;;10.94;nan
55685;BME280;41883;49.544;8.646;2022-12-29T01:43:44;99911.31;;;11.01;nan
55685;BME280;41883;49.544;8.646;2022-12-29T01:46:25;99913.31;;;10.99;nan
55685;BME280;41883;49.544;8.646;2022-12-29T01:48:57;99922.06;;;11.00;nan
55685;BME280;41883;49.544;8.646;2022-12-29T01:51:25;99918.41;;;11.01;nan
55685;BME280;41883;49.544;8.646;2022-12-29T01:53:52;99925.38;;;11.02;nan
55685;BME280;41883;49.544;8.646;2022-12-29T01:56:19;99926.72;;;10.90;nan
55685;BME280;41883;49.544;8.646;2022-12-29T01:58:48;99915.84;;;10.60;nan
55685;BME280;41883;49.544;8.646;2022-12-29T02:01:19;99914.03;;;10.36;nan
55685;BME280;41883;49.544;8.646;2022-12-29T02:03:45;99919.00;;;10.31;nan
55685;BME280;41883;49.544;8.646;2022-12-29T02:06:23;99906.75;;;10.21;nan
55685;BME280;41883;49.544;8.646;2022-12-29T02:08:50;99920.44;;;10.17;nan
55685;BME280;41883;49.544;8.646;2022-12-29T02:11:17;99931.00;;;10.17;nan
55685;BME280;41883;49.544;8.646;2022-12-29T02:13:43;99925.72;;;10.17;nan
55685;BME280;41883;49.544;8.646;2022-12-29T02:19:24;99908.91;;;10.26;nan
55685;BME280;41883;49.544;8.646;2022-12-29T02:22:16;99915.19;;;10.41;nan
55685;BME280;41883;49.544;8.646;2022-12-29T02:25:46;99913.88;;;10.54;nan
55685;BME280;41883;49.544;8.646;2022-12-29T02:33:04;99910.88;;;10.73;nan
55685;BME280;41883;49.544;8.646;2022-12-29T02:35:40;99904.59;;;10.74;nan
55685;BME280;41883;49.544;8.646;2022-12-29T02:38:33;99912.03;;;10.79;nan
55685;BME280;41883;49.544;8.646;2022-12-29T02:41:08;99907.22;;;10.82;nan
55685;BME280;41883;49.544;8.646;2022-12-29T02:43:50;99892.66;;;10.87;nan
55685;BME280;41883;49.544;8.646;2022-12-29T02:49:18;99898.91;;;10.94;nan
55685;BME280;41883;49.544;8.646;2022-12-29T02:54:19;99878.72;;;11.01;nan
55685;BME280;41883;49.544;8.646;2022-12-29T02:57:10;99875.75;;;11.04;nan
55685;BME280;41883;49.544;8.646;2022-12-29T02:59:36;99879.38;;;11.03;nan
55685;BME280;41883;49.544;8.646;2022-12-29T03:07:46;99872.75;;;11.07;nan
55685;BME280;41883;49.544;8.646;2022-12-29T03:10:35;99858.38;;;11.10;nan
55685;BME280;41883;49.544;8.646;2022-12-29T03:16:07;99861.31;;;11.15;nan
55685;BME280;41883;49.544;8.646;2022-12-29T03:18:41;99859.69;;;11.14;nan
55685;BME280;41883;49.544;8.646;2022-12-29T03:21:13;99861.66;;;11.12;nan
55685;BME280;41883;49.544;8.646;2022-12-29T03:23:40;99848.13;;;11.07;nan
55685;BME280;41883;49.544;8.646;2022-12-29T03:26:10;99846.78;;;11.11;nan
55685;BME280;41883;49.544;8.646;2022-12-29T03:28:48;99840.00;;;11.16;nan
55685;BME280;41883;49.544;8.646;2022-12-29T03:31:16;99837.19;;;11.18;nan
55685;BME280;41883;49.544;8.646;2022-12-29T03:33:43;99829.25;;;11.18;nan
55685;BME280;41883;49.544;8.646;2022-12-29T03:36:13;99835.00;;;11.21;nan
55685;BME280;41883;49.544;8.646;2022-12-29T03:38:52;99831.88;;;11.18;nan
55685;BME280;41883;49.544;8.646;2022-12-29T03:41:24;99840.66;;;11.18;nan
55685;BME280;41883;49.544;8.646;2022-12-29T03:43:51;99839.28;;;11.22;nan
55685;BME280;41883;49.544;8.646;2022-12-29T03:46:16;99823.59;;;11.21;nan
55685;BME280;41883;49.544;8.646;2022-12-29T03:48:42;99830.72;;;11.20;nan
55685;BME280;41883;49.544;8.646;2022-12-29T03:51:07;99830.06;;;11.18;nan
55685;BME280;41883;49.544;8.646;2022-12-29T03:53:32;99814.00;;;11.20;nan
55685;BME280;41883;49.544;8.646;2022-12-29T03:55:57;99821.09;;;11.19;nan
55685;BME280;41883;49.544;8.646;2022-12-29T03:58:23;99817.81;;;11.17;nan
55685;BME280;41883;49.544;8.646;2022-12-29T04:00:48;99802.94;;;11.16;nan
55685;BME280;41883;49.544;8.646;2022-12-29T04:03:13;99803.81;;;11.09;nan
55685;BME280;41883;49.544;8.646;2022-12-29T04:05:38;99796.34;;;11.12;nan
55685;BME280;41883;49.544;8.646;2022-12-29T04:08:04;99811.91;;;11.07;nan
55685;BME280;41883;49.544;8.646;2022-12-29T04:10:29;99805.44;;;11.10;nan
55685;BME280;41883;49.544;8.646;2022-12-29T04:12:54;99801.63;;;11.12;nan
55685;BME280;41883;49.544;8.646;2022-12-29T04:15:20;99795.34;;;11.13;nan
55685;BME280;41883;49.544;8.646;2022-12-29T04:17:45;99798.97;;;11.12;nan
55685;BME280;41883;49.544;8.646;2022-12-29T04:20:10;99801.28;;;11.15;nan
55685;BME280;41883;49.544;8.646;2022-12-29T04:23:02;99796.63;;;11.17;nan
55685;BME280;41883;49.544;8.646;2022-12-29T04:25:27;99790.66;;;11.23;nan
55685;BME280;41883;49.544;8.646;2022-12-29T04:27:53;99793.97;;;11.25;nan
55685;BME280;41883;49.544;8.646;2022-12-29T04:30:18;99792.13;;;11.26;nan
55685;BME280;41883;49.544;8.646;2022-12-29T04:32:43;99797.44;;;11.26;nan
55685;BME280;41883;49.544;8.646;2022-12-29T04:35:09;99794.78;;;11.26;nan
55685;BME280;41883;49.544;8.646;2022-12-29T04:37:34;99791.13;;;11.27;nan
55685;BME280;41883;49.544;8.646;2022-12-29T04:39:59;99782.19;;;11.28;nan
55685;BME280;41883;49.544;8.646;2022-12-29T04:42:25;99785.00;;;11.26;nan
55685;BME280;41883;49.544;8.646;2022-12-29T04:44:50;99784.34;;;11.24;nan
55685;BME280;41883;49.544;8.646;2022-12-29T04:47:15;99784.03;;;11.27;nan
55685;BME280;41883;49.544;8.646;2022-12-29T04:49:40;99785.50;;;11.30;nan
55685;BME280;41883;49.544;8.646;2022-12-29T04:52:06;99790.44;;;11.33;nan
55685;BME280;41883;49.544;8.646;2022-12-29T04:54:33;99788.91;;;11.39;nan
55685;BME280;41883;49.544;8.646;2022-12-29T04:56:58;99788.25;;;11.37;nan
55685;BME280;41883;49.544;8.646;2022-12-29T04:59:23;99787.72;;;11.41;nan
55685;BME280;41883;49.544;8.646;2022-12-29T05:01:49;99794.03;;;11.40;nan
55685;BME280;41883;49.544;8.646;2022-12-29T05:04:14;99786.78;;;11.34;nan
55685;BME280;41883;49.544;8.646;2022-12-29T05:06:39;99796.09;;;11.30;nan
55685;BME280;41883;49.544;8.646;2022-12-29T05:09:05;99801.19;;;11.32;nan
55685;BME280;41883;49.544;8.646;2022-12-29T05:11:30;99804.97;;;11.37;nan
55685;BME280;41883;49.544;8.646;2022-12-29T05:13:56;99800.97;;;11.41;nan
55685;BME280;41883;49.544;8.646;2022-12-29T05:16:21;99803.44;;;11.43;nan
55685;BME280;41883;49.544;8.646;2022-12-29T05:18:46;99807.41;;;11.47;nan
55685;BME280;41883;49.544;8.646;2022-12-29T05:21:11;99809.69;;;11.50;nan
55685;BME280;41883;49.544;8.646;2022-12-29T05:23:37;99807.72;;;11.44;nan
55685;BME280;41883;49.544;8.646;2022-12-29T05:26:02;99807.41;;;11.47;nan
55685;BME280;41883;49.544;8.646;2022-12-29T05:28:27;99798.97;;;11.43;nan
55685;BME280;41883;49.544;8.646;2022-12-29T05:30:53;99812.50;;;11.48;nan
55685;BME280;41883;49.544;8.646;2022-12-29T05:33:19;99815.81;;;11.51;nan
55685;BME280;41883;49.544;8.646;2022-12-29T05:35:44;99800.72;;;11.51;nan
55685;BME280;41883;49.544;8.646;2022-12-29T05:38:10;99804.22;;;11.52;nan
55685;BME280;41883;49.544;8.646;2022-12-29T05:40:35;99815.00;;;11.50;nan
55685;BME280;41883;49.544;8.646;2022-12-29T05:43:00;99799.09;;;11.50;nan
55685;BME280;41883;49.544;8.646;2022-12-29T05:45:26;99798.28;;;11.50;nan
55685;BME280;41883;49.544;8.646;2022-12-29T05:47:51;99803.09;;;11.46;nan
55685;BME280;41883;49.544;8.646;2022-12-29T05:50:16;99798.44;;;11.48;nan
55685;BME280;41883;49.544;8.646;2022-12-29T05:52:42;99800.72;;;11.51;nan
55685;BME280;41883;49.544;8.646;2022-12-29T05:55:07;99796.63;;;11.48;nan
55685;BME280;41883;49.544;8.646;2022-12-29T05:57:33;99798.44;;;11.48;nan
55685;BME280;41883;49.544;8.646;2022-12-29T05:59:58;99796.16;;;11.45;nan
55685;BME280;41883;49.544;8.646;2022-12-29T06:02:23;99806.88;;;11.52;nan
55685;BME280;41883;49.544;8.646;2022-12-29T06:04:49;99818.28;;;11.52;nan
55685;BME280;41883;49.544;8.646;2022-12-29T06:07:14;99791.44;;;11.55;nan
55685;BME280;41883;49.544;8.646;2022-12-29T06:09:39;99784.69;;;11.53;nan
55685;BME280;41883;49.544;8.646;2022-12-29T06:12:05;99792.75;;;11.59;nan
55685;BME280;41883;49.544;8.646;2022-12-29T06:14:30;99787.50;;;11.51;nan
55685;BME280;41883;49.544;8.646;2022-12-29T06:16:55;99794.09;;;11.55;nan
55685;BME280;41883;49.544;8.646;2022-12-29T06:19:21;99787.16;;;11.54;nan
55685;BME280;41883;49.544;8.646;2022-12-29T06:21:46;99776.56;;;11.54;nan
55685;BME280;41883;49.544;8.646;2022-12-29T06:24:11;99787.81;;;11.56;nan
55685;BME280;41883;49.544;8.646;2022-12-29T06:26:37;99783.88;;;11.52;nan
55685;BME280;41883;49.544;8.646;2022-12-29T06:29:02;99785.03;;;11.50;nan
55685;BME280;41883;49.544;8.646;2022-12-29T06:31:28;99785.88;;;11.50;nan
55685;BME280;41883;49.544;8.646;2022-12-29T06:33:53;99788.50;;;11.50;nan
55685;BME280;41883;49.544;8.646;2022-12-29T06:36:18;99783.75;;;11.45;nan
55685;BME280;41883;49.544;8.646;2022-12-29T06:38:43;99782.09;;;11.44;nan
55685;BME280;41883;49.544;8.646;2022-12-29T06:41:09;99775.50;;;11.40;nan
55685;BME280;41883;49.544;8.646;2022-12-29T06:43:34;99778.81;;;11.42;nan
55685;BME280;41883;49.544;8.646;2022-12-29T06:46:03;99777.13;;;11.41;nan
55685;BME280;41883;49.544;8.646;2022-12-29T06:48:28;99774.69;;;11.40;nan
55685;BME280;41883;49.544;8.646;2022-12-29T06:50:54;99777.13;;;11.41;nan
55685;BME280;41883;49.544;8.646;2022-12-29T06:53:19;99790.56;;;11.40;nan
55685;BME280;41883;49.544;8.646;2022-12-29T06:55:44;99787.91;;;11.40;nan
55685;BME280;41883;49.544;8.646;2022-12-29T06:58:10;99783.44;;;11.40;nan
55685;BME280;41883;49.544;8.646;2022-12-29T07:00:35;99779.97;;;11.40;nan
55685;BME280;41883;49.544;8.646;2022-12-29T07:03:00;99772.69;;;11.42;nan
55685;BME280;41883;49.544;8.646;2022-12-29T07:05:26;99773.69;;;11.41;nan
55685;BME280;41883;49.544;8.646;2022-12-29T07:07:53;99764.56;;;11.43;nan
55685;BME280;41883;49.544;8.646;2022-12-29T07:10:18;99773.16;;;11.45;nan
55685;BME280;41883;49.544;8.646;2022-12-29T07:12:44;99767.50;;;11.48;nan
55685;BME280;41883;49.544;8.646;2022-12-29T07:15:09;99768.34;;;11.49;nan
55685;BME280;41883;49.544;8.646;2022-12-29T07:17:35;99769.81;;;11.52;nan
55685;BME280;41883;49.544;8.646;2022-12-29T07:20:00;99771.09;;;11.56;nan
55685;BME280;41883;49.544;8.646;2022-12-29T07:22:25;99774.22;;;11.59;nan
55685;BME280;41883;49.544;8.646;2022-12-29T07:24:51;99771.94;;;11.56;nan
55685;BME280;41883;49.544;8.646;2022-12-29T07:27:16;99778.50;;;11.60;nan
55685;BME280;41883;49.544;8.646;2022-12-29T07:29:41;99763.63;;;11.59;nan
55685;BME280;41883;49.544;8.646;2022-12-29T07:32:06;99777.53;;;11.61;nan
55685;BME280;41883;49.544;8.646;2022-12-29T07:34:32;99781.50;;;11.57;nan
55685;BME280;41883;49.544;8.646;2022-12-29T07:36:57;99773.69;;;11.64;nan
55685;BME280;41883;49.544;8.646;2022-12-29T07:39:22;99785.59;;;11.68;nan
55685;BME280;41883;49.544;8.646;2022-12-29T07:41:48;99783.91;;;11.67;nan
55685;BME280;41883;49.544;8.646;2022-12-29T07:44:13;99783.47;;;11.63;nan
55685;BME280;41883;49.544;8.646;2022-12-29T07:46:38;99788.22;;;11.68;nan
55685;BME280;41883;49.544;8.646;2022-12-29T07:49:03;99789.06;;;11.68;nan
55685;BME280;41883;49.544;8.646;2022-12-29T07:51:29;99795.00;;;11.71;nan
55685;BME280;41883;49.544;8.646;2022-12-29T07:53:54;99785.09;;;11.64;nan
55685;BME280;41883;49.544;8.646;2022-12-29T07:56:19;99795.44;;;11.74;nan
55685;BME280;41883;49.544;8.646;2022-12-29T07:58:44;99792.28;;;11.79;nan
55685;BME280;41883;49.544;8.646;2022-12-29T08:01:10;99802.22;;;11.77;nan
55685;BME280;41883;49.544;8.646;2022-12-29T08:03:35;99811.19;;;11.76;nan
55685;BME280;41883;49.544;8.646;2022-12-29T08:06:01;99810.81;;;11.79;nan
55685;BME280;41883;49.544;8.646;2022-12-29T08:08:26;99812.00;;;11.76;nan
55685;BME280;41883;49.544;8.646;2022-12-29T08:10:52;99819.56;;;11.79;nan
55685;BME280;41883;49.544;8.646;2022-12-29T08:13:17;99811.63;;;11.79;nan
55685;BME280;41883;49.544;8.646;2022-12-29T08:15:42;99823.38;;;11.85;nan
55685;BME280;41883;49.544;8.646;2022-12-29T08:18:07;99829.19;;;11.80;nan
55685;BME280;41883;49.544;8.646;2022-12-29T08:20:33;99829.84;;;11.82;nan
55685;BME280;41883;49.544;8.646;2022-12-29T08:22:58;99835.75;;;11.84;nan
55685;BME280;41883;49.544;8.646;2022-12-29T08:25:23;99847.22;;;11.85;nan
55685;BME280;41883;49.544;8.646;2022-12-29T08:27:49;99848.50;;;11.89;nan
55685;BME280;41883;49.544;8.646;2022-12-29T08:30:14;99835.25;;;11.89;nan
55685;BME280;41883;49.544;8.646;2022-12-29T08:32:40;99842.88;;;11.92;nan
55685;BME280;41883;49.544;8.646;2022-12-29T08:35:05;99842.34;;;11.97;nan
55685;BME280;41883;49.544;8.646;2022-12-29T08:37:32;99855.69;;;12.03;nan
55685;BME280;41883;49.544;8.646;2022-12-29T08:39:58;99850.88;;;12.07;nan
55685;BME280;41883;49.544;8.646;2022-12-29T08:42:25;99856.88;;;12.01;nan
55685;BME280;41883;49.544;8.646;2022-12-29T08:44:55;99848.47;;;11.97;nan
55685;BME280;41883;49.544;8.646;2022-12-29T08:47:21;99853.47;;;11.92;nan
55685;BME280;41883;49.544;8.646;2022-12-29T08:49:46;99847.44;;;11.98;nan
55685;BME280;41883;49.544;8.646;2022-12-29T08:52:11;99853.88;;;12.04;nan
55685;BME280;41883;49.544;8.646;2022-12-29T08:54:36;99852.34;;;12.09;nan
55685;BME280;41883;49.544;8.646;2022-12-29T08:57:02;99857.09;;;12.14;nan
55685;BME280;41883;49.544;8.646;2022-12-29T08:59:27;99854.28;;;12.16;nan
55685;BME280;41883;49.544;8.646;2022-12-29T09:01:52;99853.94;;;12.19;nan
55685;BME280;41883;49.544;8.646;2022-12-29T09:04:17;99852.75;;;12.21;nan
55685;BME280;41883;49.544;8.646;2022-12-29T09:06:44;99846.78;;;12.19;nan
55685;BME280;41883;49.544;8.646;2022-12-29T09:09:10;99851.44;;;12.17;nan
55685;BME280;41883;49.544;8.646;2022-12-29T09:11:36;99859.22;;;12.19;nan
55685;BME280;41883;49.544;8.646;2022-12-29T09:14:01;99851.28;;;12.19;nan
55685;BME280;41883;49.544;8.646;2022-12-29T09:16:26;99856.94;;;12.16;nan
55685;BME280;41883;49.544;8.646;2022-12-29T09:18:52;99859.09;;;12.12;nan
55685;BME280;41883;49.544;8.646;2022-12-29T09:21:17;99878.31;;;12.14;nan
55685;BME280;41883;49.544;8.646;2022-12-29T09:23:42;99868.06;;;12.11;nan
55685;BME280;41883;49.544;8.646;2022-12-29T09:26:08;99874.56;;;12.08;nan
55685;BME280;41883;49.544;8.646;2022-12-29T09:28:34;99870.25;;;12.07;nan
55685;BME280;41883;49.544;8.646;2022-12-29T09:31:00;99873.72;;;12.08;nan
55685;BME280;41883;49.544;8.646;2022-12-29T09:33:26;99879.00;;;12.08;nan
55685;BME280;41883;49.544;8.646;2022-12-29T09:35:57;99867.06;;;12.12;nan
55685;BME280;41883;49.544;8.646;2022-12-29T09:38:24;99880.78;;;12.16;nan
55685;BME280;41883;49.544;8.646;2022-12-29T09:40:53;99881.50;;;12.09;nan
55685;BME280;41883;49.544;8.646;2022-12-29T09:43:24;99882.97;;;12.12;nan
55685;BME280;41883;49.544;8.646;2022-12-29T09:46:21;99886.25;;;12.14;nan
55685;BME280;41883;49.544;8.646;2022-12-29T09:48:53;99887.03;;;12.23;nan
55685;BME280;41883;49.544;8.646;2022-12-29T09:51:23;99900.09;;;12.24;nan
55685;BME280;41883;49.544;8.646;2022-12-29T09:53:57;99910.97;;;12.29;nan
55685;BME280;41883;49.544;8.646;2022-12-29T09:56:24;99897.31;;;12.41;nan
55685;BME280;41883;49.544;8.646;2022-12-29T09:58:59;99909.00;;;12.46;nan
55685;BME280;41883;49.544;8.646;2022-12-29T10:01:34;99904.31;;;12.57;nan
55685;BME280;41883;49.544;8.646;2022-12-29T10:04:01;99910.00;;;12.68;nan
55685;BME280;41883;49.544;8.646;2022-12-29T10:06:41;99904.50;;;12.70;nan
55685;BME280;41883;49.544;8.646;2022-12-29T10:15:04;99909.09;;;12.76;nan
55685;BME280;41883;49.544;8.646;2022-12-29T10:20:31;99917.59;;;12.86;nan
55685;BME280;41883;49.544;8.646;2022-12-29T10:25:34;99921.53;;;12.90;nan
55685;BME280;41883;49.544;8.646;2022-12-29T10:28:15;99925.81;;;12.91;nan
55685;BME280;41883;49.544;8.646;2022-12-29T10:30:43;99924.94;;;12.99;nan
55685;BME280;41883;49.544;8.646;2022-12-29T10:33:17;99918.44;;;13.02;nan
55685;BME280;41883;49.544;8.646;2022-12-29T10:35:44;99916.50;;;13.10;nan
55685;BME280;41883;49.544;8.646;2022-12-29T10:38:30;99916.97;;;13.14;nan
55685;BME280;41883;49.544;8.646;2022-12-29T10:41:13;99906.63;;;13.19;nan
55685;BME280;41883;49.544;8.646;2022-12-29T10:43:46;99909.72;;;13.23;nan
55685;BME280;41883;49.544;8.646;2022-12-29T10:46:18;99897.84;;;13.18;nan
55685;BME280;41883;49.544;8.646;2022-12-29T10:48:44;99906.47;;;13.21;nan
55685;BME280;41883;49.544;8.646;2022-12-29T10:51:20;99904.63;;;13.36;nan
55685;BME280;41883;49.544;8.646;2022-12-29T10:53:51;99901.03;;;13.44;nan
55685;BME280;41883;49.544;8.646;2022-12-29T10:58:54;99900.19;;;13.58;nan
55685;BME280;41883;49.544;8.646;2022-12-29T11:01:23;99894.78;;;13.51;nan
55685;BME280;41883;49.544;8.646;2022-12-29T11:04:02;99906.19;;;13.45;nan
55685;BME280;41883;49.544;8.646;2022-12-29T11:06:28;99908.00;;;13.45;nan
55685;BME280;41883;49.544;8.646;2022-12-29T11:09:01;99906.00;;;13.47;nan
55685;BME280;41883;49.544;8.646;2022-12-29T11:11:35;99914.06;;;13.38;nan
55685;BME280;41883;49.544;8.646;2022-12-29T11:14:35;99913.31;;;13.30;nan
55685;BME280;41883;49.544;8.646;2022-12-29T11:17:02;99914.22;;;12.92;nan
55685;BME280;41883;49.544;8.646;2022-12-29T11:19:30;99910.88;;;12.61;nan
55685;BME280;41883;49.544;8.646;2022-12-29T11:22:21;99920.34;;;12.40;nan
55685;BME280;41883;49.544;8.646;2022-12-29T11:24:48;99910.81;;;12.31;nan
55685;BME280;41883;49.544;8.646;2022-12-29T11:27:23;99914.00;;;12.26;nan
55685;BME280;41883;49.544;8.646;2022-12-29T11:29:50;99920.22;;;12.33;nan
55685;BME280;41883;49.544;8.646;2022-12-29T11:32:27;99924.38;;;12.51;nan
55685;BME280;41883;49.544;8.646;2022-12-29T11:34:54;99928.28;;;12.63;nan
55685;BME280;41883;49.544;8.646;2022-12-29T11:37:32;99924.09;;;12.84;nan
55685;BME280;41883;49.544;8.646;2022-12-29T11:40:26;99932.44;;;12.95;nan
55685;BME280;41883;49.544;8.646;2022-12-29T11:42:53;99927.50;;;13.07;nan
55685;BME280;41883;49.544;8.646;2022-12-29T11:45:22;99919.91;;;13.19;nan
55685;BME280;41883;49.544;8.646;2022-12-29T11:47:51;99908.91;;;13.22;nan
55685;BME280;41883;49.544;8.646;2022-12-29T11:50:26;99917.88;;;13.21;nan
55685;BME280;41883;49.544;8.646;2022-12-29T11:53:03;99920.34;;;13.23;nan
55685;BME280;41883;49.544;8.646;2022-12-29T11:55:31;99921.09;;;13.16;nan
55685;BME280;41883;49.544;8.646;2022-12-29T11:57:59;99917.88;;;12.91;nan
55685;BME280;41883;49.544;8.646;2022-12-29T12:00:28;99912.28;;;12.71;nan
55685;BME280;41883;49.544;8.646;2022-12-29T12:03:05;99905.66;;;12.52;nan
55685;BME280;41883;49.544;8.646;2022-12-29T12:05:49;99910.25;;;12.59;nan
55685;BME280;41883;49.544;8.646;2022-12-29T12:08:41;99909.34;;;12.66;nan
55685;BME280;41883;49.544;8.646;2022-12-29T12:11:15;99918.13;;;12.82;nan
55685;BME280;41883;49.544;8.646;2022-12-29T12:14:06;99921.31;;;12.77;nan
55685;BME280;41883;49.544;8.646;2022-12-29T12:16:46;99926.19;;;12.88;nan
55685;BME280;41883;49.544;8.646;2022-12-29T12:19:40;99927.13;;;12.95;nan
55685;BME280;41883;49.544;8.646;2022-12-29T12:22:13;99926.03;;;13.05;nan
55685;BME280;41883;49.544;8.646;2022-12-29T12:24:47;99921.81;;;13.10;nan
55685;BME280;41883;49.544;8.646;2022-12-29T12:30:02;99932.00;;;13.07;nan
55685;BME280;41883;49.544;8.646;2022-12-29T12:32:44;99931.34;;;12.90;nan
55685;BME280;41883;49.544;8.646;2022-12-29T12:35:13;99928.63;;;12.60;nan
55685;BME280;41883;49.544;8.646;2022-12-29T12:37:52;99924.50;;;12.58;nan
55685;BME280;41883;49.544;8.646;2022-12-29T12:40:30;99927.47;;;12.78;nan
55685;BME280;41883;49.544;8.646;2022-12-29T12:46:12;99936.38;;;13.00;nan
55685;BME280;41883;49.544;8.646;2022-12-29T12:49:07;99927.59;;;12.99;nan
55685;BME280;41883;49.544;8.646;2022-12-29T12:59:52;99921.66;;;12.97;nan
55685;BME280;41883;49.544;8.646;2022-12-29T13:08:25;99905.88;;;12.95;nan
55685;BME280;41883;49.544;8.646;2022-12-29T13:16:51;99900.22;;;13.13;nan
55685;BME280;41883;49.544;8.646;2022-12-29T13:22:18;99909.72;;;13.23;nan
55685;BME280;41883;49.544;8.646;2022-12-29T13:27:45;99903.88;;;13.12;nan
55685;BME280;41883;49.544;8.646;2022-12-29T13:30:21;99912.97;;;13.18;nan
55685;BME280;41883;49.544;8.646;2022-12-29T13:32:58;99921.53;;;13.20;nan
55685;BME280;41883;49.544;8.646;2022-12-29T13:38:36;99909.72;;;13.08;nan
55685;BME280;41883;49.544;8.646;2022-12-29T13:41:13;99911.47;;;13.01;nan
55685;BME280;41883;49.544;8.646;2022-12-29T13:43:40;99908.72;;;12.94;nan
55685;BME280;41883;49.544;8.646;2022-12-29T13:46:12;99897.44;;;12.77;nan
55685;BME280;41883;49.544;8.646;2022-12-29T13:48:46;99897.72;;;12.67;nan
55685;BME280;41883;49.544;8.646;2022-12-29T13:51:15;99902.28;;;12.59;nan
55685;BME280;41883;49.544;8.646;2022-12-29T13:56:35;99900.78;;;12.41;nan
55685;BME280;41883;49.544;8.646;2022-12-29T14:04:28;99908.94;;;11.85;nan
55685;BME280;41883;49.544;8.646;2022-12-29T14:07:05;99914.63;;;11.74;nan
55685;BME280;41883;49.544;8.646;2022-12-29T14:09:49;99909.22;;;11.67;nan
55685;BME280;41883;49.544;8.646;2022-12-29T14:12:36;99924.84;;;11.54;nan
55685;BME280;41883;49.544;8.646;2022-12-29T14:15:25;99937.19;;;11.22;nan
55685;BME280;41883;49.544;8.646;2022-12-29T14:18:03;99934.09;;;11.11;nan
55685;BME280;41883;49.544;8.646;2022-12-29T14:20:30;99932.97;;;11.05;nan
55685;BME280;41883;49.544;8.646;2022-12-29T14:22:57;99929.53;;;10.88;nan
55685;BME280;41883;49.544;8.646;2022-12-29T14:25:53;99944.59;;;10.71;nan
55685;BME280;41883;49.544;8.646;2022-12-29T14:28:25;99958.16;;;10.60;nan
55685;BME280;41883;49.544;8.646;2022-12-29T14:30:53;99951.22;;;10.43;nan
55685;BME280;41883;49.544;8.646;2022-12-29T14:33:19;99954.34;;;10.38;nan
55685;BME280;41883;49.544;8.646;2022-12-29T14:35:46;99944.78;;;10.37;nan
55685;BME280;41883;49.544;8.646;2022-12-29T14:38:32;99951.38;;;10.33;nan
55685;BME280;41883;49.544;8.646;2022-12-29T14:41:18;99961.75;;;10.18;nan
55685;BME280;41883;49.544;8.646;2022-12-29T14:43:53;99966.66;;;10.13;nan
55685;BME280;41883;49.544;8.646;2022-12-29T14:46:19;99969.97;;;10.15;nan
55685;BME280;41883;49.544;8.646;2022-12-29T14:48:45;99966.19;;;10.09;nan
55685;BME280;41883;49.544;8.646;2022-12-29T14:51:27;99956.25;;;10.03;nan
55685;BME280;41883;49.544;8.646;2022-12-29T14:53:54;99965.66;;;10.06;nan
55685;BME280;41883;49.544;8.646;2022-12-29T14:56:25;99967.13;;;9.92;nan
55685;BME280;41883;49.544;8.646;2022-12-29T14:59:00;99981.97;;;9.85;nan